Aviation Digital Data Service (ADDS)

Output produced by METARs form (1820 UTC 23 September 2014)
found at http://aviationweather.gov/adds/metars/
 
KGON 231727Z 2318/2418 21010KT P6SM FEW070 
     FM232300 VRB04KT P6SM FEW250 
     FM241100 07008KT P6SM SCT030 SCT250